Nice, France

7:44 PM CEST on September 01, 2015 (GMT +0200)
Nice-Cote d'Azur | | Change Station
CLOSE
Current Station
Airport
Location: Nice,
Elevation: 10 ft
Nearby Weather Stations

Elev 10 ft 43.65 °N, 7.21 °E | Updated 14 minutes ago

Scattered Clouds
Scattered Clouds
79 °F
Feels Like 79 °F
N
5
Wind Variable Wind from South

Today
High -- | Low -- °F
--% Chance of Precip.
Yesterday
High -- | Low -- °F
Precip. -- in
6:54 AM 8:07 PM
Waning Gibbous, 87% visible
Pressure 29.89 in
Visibility 6.2 miles
Clouds Few 3300 ft
Scattered Clouds 26000 ft
Dew Point 68 °F
Humidity 69%
Rainfall 0.00 in
Snow Depth Not available.
UV 0 out of 12
Pollen Not available.
Air Quality Not available.
Flu Activity Not available.
METAR LFMN 011730Z 19004KT 9999 FEW033 SCT260 26/20 Q1012 NOSIG
Pressure 29.89 in
Visibility 6.2 miles
Clouds Few 3300 ft
Scattered Clouds 26000 ft
Dew Point 68 °F
Humidity 69%
Rainfall 0.00 in
Snow Depth Not available.
UV 0 out of 12
Pollen Not available.
Air Quality Not available.
Flu Activity Not available.
METAR LFMN 011730Z 19004KT 9999 FEW033 SCT260 26/20 Q1012 NOSIG

10-Day Weather Forecast

×

Almanac

Astronomy

Sep. 01, 2015 Rise Set
Actual Time
Civil Twilight
Nautical Twilight
Astronomical Twilight
Moon
Length of Visible Light
Length of Day
Tomorrow will be .
, % of the Moon is Illuminated

Today's Extremes

Country Highs Country Lows

Community

WunderPhotos

Upload Photos

1,851,569 photos uploaded!

WunderBlogs® & News

Nearby

Air Quality

  Air Quality AQ Index Pollutant
Not available.

Snow Depth

Station Depth Elevation

Earthquake Activity

City Distance Mag. Time & Date
Minimum magnitude displayed is 2.5.

Coastal Water Temperatures

Place Temperature

Stations

Nearby Weather Stations

Station Location Temp. Windchill Dew Point Humidity Wind Precip. Elev Updated Type